createdAt,value
2022-11-20T00:00:14.019Z,-3.70
2022-11-20T00:02:42.714Z,-3.70
2022-11-20T00:05:11.689Z,-3.80
2022-11-20T00:07:39.691Z,-3.80
2022-11-20T00:10:08.018Z,-3.90
2022-11-20T00:12:35.773Z,-3.90
2022-11-20T00:15:04.108Z,-3.80
2022-11-20T00:17:31.886Z,-3.80
2022-11-20T00:20:07.513Z,-3.80
2022-11-20T00:22:35.487Z,-3.80
2022-11-20T00:25:03.558Z,-3.80
2022-11-20T00:27:37.098Z,-3.90
2022-11-20T00:30:14.866Z,-3.90
2022-11-20T00:32:43.278Z,-3.90
2022-11-20T00:35:11.079Z,-3.90
2022-11-20T00:37:39.223Z,-3.90
2022-11-20T00:40:07.473Z,-3.90
2022-11-20T00:42:35.880Z,-4.00
2022-11-20T00:45:03.739Z,-4.00
2022-11-20T00:47:35.491Z,-4.00
2022-11-20T00:50:03.397Z,-3.90
2022-11-20T00:52:37.423Z,-3.90
2022-11-20T00:55:05.428Z,-3.90
2022-11-20T00:57:32.993Z,-3.90
2022-11-20T01:00:00.861Z,-3.90
2022-11-20T01:02:28.978Z,-3.90
2022-11-20T01:04:58.611Z,-4.00
2022-11-20T01:07:26.581Z,-4.00
2022-11-20T01:09:54.965Z,-4.10
2022-11-20T01:12:24.214Z,-4.00
2022-11-20T01:14:55.786Z,-4.10
2022-11-20T01:17:24.539Z,-4.00
2022-11-20T01:19:52.224Z,-4.00
2022-11-20T01:22:21.186Z,-4.00
2022-11-20T01:24:49.815Z,-4.00
2022-11-20T01:27:17.927Z,-4.00
2022-11-20T01:29:47.510Z,-4.00
2022-11-20T01:32:15.331Z,-4.00
2022-11-20T01:34:43.642Z,-3.90
2022-11-20T01:37:11.719Z,-4.00
2022-11-20T01:39:39.987Z,-3.90
2022-11-20T01:42:27.128Z,-4.00
2022-11-20T01:44:58.420Z,-4.00
2022-11-20T01:47:44.508Z,-3.90
2022-11-20T01:50:14.126Z,-3.90
2022-11-20T01:52:52.053Z,-3.90
2022-11-20T01:55:28.164Z,-4.00
2022-11-20T01:57:57.313Z,-4.00
2022-11-20T02:00:25.343Z,-4.00
2022-11-20T02:02:57.968Z,-4.00
2022-11-20T02:05:37.932Z,-4.00
2022-11-20T02:08:06.294Z,-4.10
2022-11-20T02:10:34.910Z,-4.10
2022-11-20T02:13:21.474Z,-4.10
2022-11-20T02:15:55.567Z,-4.10
2022-11-20T02:18:25.565Z,-4.10
2022-11-20T02:21:17.466Z,-4.10
2022-11-20T02:24:18.071Z,-4.10
2022-11-20T02:26:52.851Z,-4.10
2022-11-20T02:30:12.750Z,-4.10
2022-11-20T02:32:40.677Z,-4.00
2022-11-20T02:35:11.680Z,-3.80
2022-11-20T02:38:44.266Z,-3.80
2022-11-20T02:41:12.450Z,-3.70
2022-11-20T02:43:44.703Z,-3.70
2022-11-20T02:46:16.306Z,-3.80
2022-11-20T02:48:47.407Z,-3.80
2022-11-20T02:51:16.196Z,-3.90
2022-11-20T02:53:44.367Z,-4.00
2022-11-20T02:56:44.781Z,-3.90
2022-11-20T02:59:12.848Z,-4.00
2022-11-20T03:06:37.806Z,-4.00
2022-11-20T03:09:06.354Z,-4.00
2022-11-20T03:11:38.717Z,-4.10
2022-11-20T03:14:07.300Z,-4.10
2022-11-20T03:16:42.834Z,-4.20
2022-11-20T03:19:13.028Z,-4.10
2022-11-20T03:21:44.742Z,-4.20
2022-11-20T03:24:13.448Z,-4.10
2022-11-20T03:26:42.381Z,-4.10
2022-11-20T03:29:10.096Z,-4.10
2022-11-20T03:31:38.656Z,-4.10
2022-11-20T03:34:06.677Z,-4.10
2022-11-20T03:36:36.723Z,-4.20
2022-11-20T03:39:04.833Z,-4.20
2022-11-20T03:41:37.450Z,-4.20
2022-11-20T03:44:09.729Z,-4.20
2022-11-20T03:46:37.758Z,-4.20
2022-11-20T03:49:06.182Z,-4.20
2022-11-20T03:51:36.555Z,-4.20
2022-11-20T03:54:06.404Z,-4.20
2022-11-20T03:56:41.605Z,-4.20
2022-11-20T03:59:21.350Z,-4.20
2022-11-20T04:01:59.599Z,-4.30
2022-11-20T04:05:00.226Z,-4.20
2022-11-20T04:07:36.930Z,-4.30
2022-11-20T04:10:08.866Z,-4.30
2022-11-20T04:12:38.114Z,-4.30
2022-11-20T04:15:06.818Z,-4.30
2022-11-20T04:17:37.256Z,-4.20
2022-11-20T04:20:10.106Z,-4.20
2022-11-20T04:22:38.391Z,-4.20
2022-11-20T04:25:06.849Z,-4.20
2022-11-20T04:27:35.937Z,-4.30
2022-11-20T04:30:04.866Z,-4.30
2022-11-20T04:32:34.372Z,-4.30
2022-11-20T04:35:02.805Z,-4.40
2022-11-20T04:37:31.737Z,-4.30
2022-11-20T04:40:07.361Z,-4.40
2022-11-20T04:43:07.127Z,-4.30
2022-11-20T04:45:41.825Z,-4.40
2022-11-20T04:48:09.912Z,-4.40
2022-11-20T04:50:41.110Z,-4.30
2022-11-20T04:53:09.355Z,-4.30
2022-11-20T04:55:38.340Z,-4.40
2022-11-20T04:58:17.124Z,-4.40
2022-11-20T05:00:54.336Z,-4.40
2022-11-20T05:03:22.949Z,-4.40
2022-11-20T05:05:50.743Z,-4.40
2022-11-20T05:08:19.001Z,-4.40
2022-11-20T05:10:48.855Z,-4.40
2022-11-20T05:13:17.020Z,-4.40
2022-11-20T05:15:46.325Z,-4.40
2022-11-20T05:18:22.429Z,-4.40
2022-11-20T05:20:57.816Z,-4.40
2022-11-20T05:23:28.978Z,-4.40
2022-11-20T05:26:01.565Z,-4.40
2022-11-20T05:28:30.164Z,-4.40
2022-11-20T05:31:09.509Z,-4.40
2022-11-20T05:33:41.054Z,-4.40
2022-11-20T05:36:10.496Z,-4.40
2022-11-20T05:38:40.342Z,-4.40
2022-11-20T05:41:33.814Z,-4.40
2022-11-20T05:44:01.773Z,-4.40
2022-11-20T05:46:29.977Z,-4.40
2022-11-20T05:49:02.729Z,-4.40
2022-11-20T05:52:34.868Z,-4.40
2022-11-20T05:55:03.360Z,-4.50
2022-11-20T05:57:38.276Z,-4.50
2022-11-20T06:00:09.248Z,-4.50
2022-11-20T06:03:21.386Z,-4.50
2022-11-20T06:05:54.087Z,-4.50
2022-11-20T06:08:23.402Z,-4.40
2022-11-20T06:10:51.930Z,-4.40
2022-11-20T06:13:22.196Z,-4.40
2022-11-20T06:15:55.380Z,-4.40
2022-11-20T06:18:33.437Z,-4.50
2022-11-20T06:21:03.247Z,-4.50
2022-11-20T06:24:03.682Z,-4.50
2022-11-20T06:26:31.842Z,-4.40
2022-11-20T06:29:00.857Z,-4.40
2022-11-20T06:31:29.650Z,-4.40
2022-11-20T06:33:59.380Z,-4.40
2022-11-20T06:36:29.213Z,-4.40
2022-11-20T06:39:05.597Z,-4.50
2022-11-20T06:41:34.820Z,-4.50
2022-11-20T06:44:05.042Z,-4.50
2022-11-20T06:51:22.796Z,-4.50
2022-11-20T06:53:50.917Z,-4.50
2022-11-20T06:56:19.898Z,-4.40
2022-11-20T06:58:48.869Z,-4.40
2022-11-20T07:01:20.349Z,-4.40
2022-11-20T07:03:54.398Z,-4.40
2022-11-20T07:06:30.903Z,-4.40
2022-11-20T07:08:59.171Z,-4.40
2022-11-20T07:11:34.518Z,-4.40
2022-11-20T07:14:14.395Z,-4.40
2022-11-20T07:16:46.714Z,-4.00
2022-11-20T07:19:54.622Z,-4.00
2022-11-20T07:22:23.582Z,-3.90
2022-11-20T07:25:24.979Z,-2.90
2022-11-20T07:27:53.613Z,-3.00
2022-11-20T07:30:22.230Z,-3.30
2022-11-20T07:32:54.304Z,-3.50
2022-11-20T07:35:22.990Z,-3.40
2022-11-20T07:37:51.512Z,-2.60
2022-11-20T07:40:30.728Z,-1.70
2022-11-20T07:42:59.403Z,-0.90
2022-11-20T07:45:27.311Z,0.10
2022-11-20T07:47:55.935Z,0.80
2022-11-20T07:50:24.358Z,1.30
2022-11-20T07:52:53.729Z,2.10
2022-11-20T07:55:22.203Z,3.00
2022-11-20T07:57:55.605Z,3.50
2022-11-20T08:00:23.183Z,3.80
2022-11-20T08:02:51.219Z,4.20
2022-11-20T08:05:19.809Z,4.10
2022-11-20T08:07:48.371Z,4.40
2022-11-20T08:10:17.250Z,4.40
2022-11-20T08:13:08.256Z,4.80
2022-11-20T08:15:41.165Z,4.40
2022-11-20T08:18:40.609Z,4.80
2022-11-20T08:21:05.123Z,5.20
2022-11-20T08:23:39.267Z,5.80
2022-11-20T08:26:08.782Z,5.90
2022-11-20T08:28:37.351Z,6.00
2022-11-20T08:31:06.686Z,6.10
2022-11-20T08:33:34.880Z,6.10
2022-11-20T08:36:05.038Z,6.90
2022-11-20T08:38:34.132Z,7.10
2022-11-20T08:41:21.770Z,6.70
2022-11-20T08:43:51.386Z,6.80
2022-11-20T08:46:20.044Z,8.00
2022-11-20T08:49:20.523Z,8.50
2022-11-20T08:51:52.804Z,9.20
2022-11-20T08:54:23.747Z,11.40
2022-11-20T08:56:52.553Z,11.70
2022-11-20T08:59:43.264Z,11.40
2022-11-20T09:02:10.462Z,11.40
2022-11-20T09:04:38.886Z,11.80
2022-11-20T09:07:07.239Z,12.20
2022-11-20T09:09:35.847Z,12.30
2022-11-20T09:12:16.595Z,13.90
2022-11-20T09:14:45.127Z,14.60
2022-11-20T09:17:21.827Z,15.50
2022-11-20T09:19:55.733Z,16.10
2022-11-20T09:22:26.850Z,15.30
2022-11-20T09:24:55.162Z,15.00
2022-11-20T09:27:23.587Z,15.70
2022-11-20T09:30:00.863Z,17.10
2022-11-20T09:32:30.114Z,18.60
2022-11-20T09:35:02.541Z,19.40
2022-11-20T09:37:31.293Z,20.20
2022-11-20T09:39:59.461Z,20.60
2022-11-20T09:42:35.824Z,21.00
2022-11-20T09:45:35.410Z,21.60
2022-11-20T09:48:19.714Z,21.90
2022-11-20T09:51:07.921Z,21.80
2022-11-20T09:53:58.604Z,22.00
2022-11-20T09:56:35.018Z,21.20
2022-11-20T09:59:05.955Z,20.10
2022-11-20T10:01:41.889Z,20.50
2022-11-20T10:04:17.641Z,20.60
2022-11-20T10:07:17.241Z,20.80
2022-11-20T10:09:55.123Z,20.90
2022-11-20T10:16:36.651Z,22.30
2022-11-20T10:19:32.041Z,23.00
2022-11-20T10:22:10.108Z,23.50
2022-11-20T10:24:53.808Z,24.10
2022-11-20T10:27:28.527Z,24.10
2022-11-20T10:30:16.498Z,23.10
2022-11-20T10:32:50.395Z,23.80
2022-11-20T10:35:36.223Z,23.30
2022-11-20T10:38:06.827Z,22.50
2022-11-20T10:40:50.110Z,23.30
2022-11-20T10:43:29.034Z,21.00
2022-11-20T10:45:59.507Z,21.30
2022-11-20T10:48:29.038Z,20.80
2022-11-20T10:51:15.875Z,20.90
2022-11-20T10:53:54.429Z,21.90
2022-11-20T10:56:25.966Z,21.40
2022-11-20T10:58:59.353Z,21.20
2022-11-20T11:01:29.073Z,21.00
2022-11-20T11:04:24.713Z,19.90
2022-11-20T11:06:55.702Z,16.30
2022-11-20T11:09:29.604Z,13.60
2022-11-20T11:11:59.110Z,11.50
2022-11-20T11:14:29.538Z,10.40
2022-11-20T11:16:58.254Z,9.20
2022-11-20T11:19:26.393Z,8.50
2022-11-20T11:22:13.330Z,7.20
2022-11-20T11:25:05.863Z,7.10
2022-11-20T11:27:34.849Z,6.70
2022-11-20T11:30:14.041Z,6.10
2022-11-20T11:32:46.473Z,5.70
2022-11-20T11:35:22.409Z,5.10
2022-11-20T11:42:43.661Z,6.30
2022-11-20T11:45:18.276Z,8.60
2022-11-20T11:48:19.913Z,9.50
2022-11-20T11:50:58.875Z,11.10
2022-11-20T11:53:28.321Z,12.00
2022-11-20T11:56:11.416Z,13.10
2022-11-20T11:58:50.865Z,12.40
2022-11-20T12:01:50.529Z,12.20
2022-11-20T12:04:27.239Z,12.30
2022-11-20T12:07:24.227Z,13.00
2022-11-20T12:09:59.421Z,13.10
2022-11-20T12:12:36.503Z,14.30
2022-11-20T12:15:17.896Z,15.90
2022-11-20T12:17:45.974Z,15.20
2022-11-20T12:20:15.050Z,14.80
2022-11-20T12:22:48.711Z,14.80
2022-11-20T12:25:52.141Z,15.90
2022-11-20T12:35:27.670Z,19.20
2022-11-20T12:38:56.620Z,18.90
2022-11-20T12:42:23.748Z,20.10
2022-11-20T12:45:13.710Z,20.90
2022-11-20T12:48:04.937Z,21.10
2022-11-20T12:50:42.874Z,21.20
2022-11-20T12:53:15.389Z,21.40
2022-11-20T12:55:43.283Z,21.20
2022-11-20T12:58:12.620Z,21.10
2022-11-20T13:00:47.824Z,21.00
2022-11-20T13:03:26.229Z,21.20
2022-11-20T13:05:58.273Z,21.10
2022-11-20T13:08:40.700Z,20.70
2022-11-20T13:11:19.799Z,20.50
2022-11-20T13:13:47.695Z,20.40
2022-11-20T13:16:25.281Z,20.70
2022-11-20T13:19:00.644Z,20.20
2022-11-20T13:21:38.557Z,20.00
2022-11-20T13:28:42.177Z,19.00
2022-11-20T13:32:07.634Z,17.70
2022-11-20T13:34:53.946Z,17.50
2022-11-20T13:37:28.365Z,16.00
2022-11-20T13:40:28.056Z,16.40
2022-11-20T13:43:11.743Z,16.90
2022-11-20T13:45:43.927Z,17.40
2022-11-20T13:48:44.574Z,18.00
2022-11-20T13:51:48.152Z,17.80
2022-11-20T13:54:16.128Z,17.50
2022-11-20T13:57:06.612Z,15.70
2022-11-20T13:59:44.178Z,14.70
2022-11-20T14:02:17.393Z,15.50
2022-11-20T14:05:18.315Z,16.40
2022-11-20T14:07:51.531Z,17.20
2022-11-20T14:10:29.921Z,17.50
2022-11-20T14:13:11.276Z,17.00
2022-11-20T14:15:47.837Z,15.50
2022-11-20T14:18:22.927Z,14.30
2022-11-20T14:20:51.879Z,13.20
2022-11-20T14:23:35.189Z,12.40
2022-11-20T14:26:07.992Z,11.50
2022-11-20T14:28:37.274Z,10.80
2022-11-20T14:31:21.848Z,10.10
2022-11-20T14:33:58.641Z,9.70
2022-11-20T14:36:33.044Z,9.20
2022-11-20T14:39:04.402Z,8.90
2022-11-20T14:41:33.797Z,8.50
2022-11-20T14:44:10.384Z,8.20
2022-11-20T14:46:38.253Z,8.00
2022-11-20T14:49:11.374Z,7.80
2022-11-20T14:51:44.171Z,7.60
2022-11-20T14:54:17.185Z,7.40
2022-11-20T14:57:02.551Z,7.20
2022-11-20T15:00:04.304Z,6.90
2022-11-20T15:02:40.082Z,6.70
2022-11-20T15:05:08.330Z,6.20
2022-11-20T15:07:37.594Z,6.10
2022-11-20T15:10:10.336Z,6.00
2022-11-20T15:12:55.347Z,5.70
2022-11-20T15:15:26.635Z,5.30
2022-11-20T15:17:54.947Z,4.80
2022-11-20T15:20:25.255Z,4.80
2022-11-20T15:22:57.625Z,4.80
2022-11-20T15:25:25.649Z,4.20
2022-11-20T15:27:56.644Z,4.20
2022-11-20T15:30:25.060Z,4.20
2022-11-20T15:33:02.576Z,4.00
2022-11-20T15:35:31.663Z,3.80
2022-11-20T15:37:59.730Z,3.30
2022-11-20T15:40:32.761Z,3.10
2022-11-20T15:43:13.428Z,2.80
2022-11-20T15:45:47.094Z,2.70
2022-11-20T15:48:14.541Z,2.30
2022-11-20T15:51:13.573Z,2.30
2022-11-20T15:53:42.106Z,2.20
2022-11-20T15:56:14.076Z,2.20
2022-11-20T15:58:41.968Z,2.00
2022-11-20T16:01:17.472Z,2.00
2022-11-20T16:03:49.438Z,1.80
2022-11-20T16:06:17.776Z,1.70
2022-11-20T16:08:45.429Z,1.30
2022-11-20T16:11:17.976Z,1.20
2022-11-20T16:14:05.114Z,1.00
2022-11-20T16:16:37.986Z,0.80
2022-11-20T16:19:16.901Z,0.60
2022-11-20T16:21:45.676Z,0.60
2022-11-20T16:24:14.400Z,0.70
2022-11-20T16:26:42.630Z,0.70
2022-11-20T16:29:11.223Z,0.70
2022-11-20T16:32:13.646Z,0.70
2022-11-20T16:34:42.268Z,0.60
2022-11-20T16:37:10.450Z,0.60
2022-11-20T16:39:38.210Z,0.60
2022-11-20T16:42:10.219Z,0.50
2022-11-20T16:44:38.763Z,0.40
2022-11-20T16:47:06.543Z,0.30
2022-11-20T16:49:34.468Z,0.20
2022-11-20T16:52:02.952Z,0.00
2022-11-20T16:54:30.635Z,0.10
2022-11-20T16:56:58.833Z,0.00
2022-11-20T16:59:28.586Z,-0.10
2022-11-20T17:01:56.342Z,-0.10
2022-11-20T17:04:24.809Z,-0.20
2022-11-20T17:06:53.585Z,-0.20
2022-11-20T17:09:29.183Z,-0.10
2022-11-20T17:11:57.896Z,0.00
2022-11-20T17:14:27.975Z,0.00
2022-11-20T17:16:55.912Z,-0.10
2022-11-20T17:19:24.323Z,-0.30
2022-11-20T17:21:51.926Z,-0.40
2022-11-20T17:24:19.674Z,-0.60
2022-11-20T17:26:55.079Z,-0.70
2022-11-20T17:29:24.569Z,-0.60
2022-11-20T17:31:52.171Z,-0.60
2022-11-20T17:34:19.855Z,-0.60
2022-11-20T17:36:51.257Z,-0.60
2022-11-20T17:39:19.652Z,-0.50
2022-11-20T17:42:10.436Z,-0.50
2022-11-20T17:44:38.114Z,-0.50
2022-11-20T17:47:06.066Z,-0.50
2022-11-20T17:49:34.176Z,-0.40
2022-11-20T17:52:01.784Z,-0.50
2022-11-20T17:54:40.195Z,-0.50
